sensor_id;sensor_type;location;lat;lon;timestamp;P1;durP1;ratioP1;P2;durP2;ratioP2
63555;SDS011;49700;48.072;7.800;2022-11-12T08:21:23;13.88;;;7.80;;
63555;SDS011;49700;48.072;7.800;2022-11-12T08:27:54;19.08;;;8.18;;
63555;SDS011;49700;48.072;7.800;2022-11-12T12:50:30;23.00;;;13.07;;
63555;SDS011;49700;48.072;7.800;2022-11-12T12:53:58;22.95;;;13.85;;
63555;SDS011;49700;48.072;7.800;2022-11-12T13:04:33;29.90;;;15.63;;
63555;SDS011;49700;48.072;7.800;2022-11-12T13:14:53;28.63;;;15.02;;
63555;SDS011;49700;48.072;7.800;2022-11-12T13:31:43;30.00;;;16.77;;
63555;SDS011;49700;48.072;7.800;2022-11-12T13:41:18;34.78;;;19.60;;
63555;SDS011;49700;48.072;7.800;2022-11-12T13:44:24;36.00;;;18.00;;
63555;SDS011;49700;48.072;7.800;2022-11-12T13:47:15;30.67;;;18.38;;
63555;SDS011;49700;48.072;7.800;2022-11-12T13:50:16;34.53;;;18.30;;
63555;SDS011;49700;48.072;7.800;2022-11-12T13:53:07;34.90;;;16.85;;
63555;SDS011;49700;48.072;7.800;2022-11-12T13:56:09;31.45;;;18.30;;
63555;SDS011;49700;48.072;7.800;2022-11-12T13:59:17;48.45;;;21.30;;
63555;SDS011;49700;48.072;7.800;2022-11-12T14:02:03;31.63;;;19.10;;
63555;SDS011;49700;48.072;7.800;2022-11-12T14:05:37;34.97;;;19.17;;
63555;SDS011;49700;48.072;7.800;2022-11-12T14:08:59;32.92;;;18.92;;
63555;SDS011;49700;48.072;7.800;2022-11-12T14:12:30;46.20;;;20.02;;
63555;SDS011;49700;48.072;7.800;2022-11-12T14:22:43;44.58;;;20.52;;
63555;SDS011;49700;48.072;7.800;2022-11-12T14:25:31;43.92;;;21.30;;
63555;SDS011;49700;48.072;7.800;2022-11-12T14:28:50;43.85;;;22.35;;
63555;SDS011;49700;48.072;7.800;2022-11-12T14:32:01;33.00;;;20.88;;
63555;SDS011;49700;48.072;7.800;2022-11-12T14:34:54;45.78;;;22.92;;
63555;SDS011;49700;48.072;7.800;2022-11-12T14:37:57;45.38;;;23.25;;
63555;SDS011;49700;48.072;7.800;2022-11-12T14:40:48;36.55;;;19.35;;
63555;SDS011;49700;48.072;7.800;2022-11-12T14:43:50;33.60;;;19.20;;
63555;SDS011;49700;48.072;7.800;2022-11-12T14:46:56;36.75;;;19.65;;
63555;SDS011;49700;48.072;7.800;2022-11-12T14:49:53;38.72;;;19.45;;
63555;SDS011;49700;48.072;7.800;2022-11-12T14:56:30;40.25;;;18.65;;
63555;SDS011;49700;48.072;7.800;2022-11-12T14:59:25;34.53;;;19.98;;
63555;SDS011;49700;48.072;7.800;2022-11-12T15:02:34;34.47;;;16.45;;
63555;SDS011;49700;48.072;7.800;2022-11-12T15:05:29;26.08;;;16.45;;
63555;SDS011;49700;48.072;7.800;2022-11-12T15:08:34;39.10;;;18.70;;
63555;SDS011;49700;48.072;7.800;2022-11-12T15:11:31;35.22;;;15.25;;
63555;SDS011;49700;48.072;7.800;2022-11-12T15:14:22;33.15;;;17.95;;
63555;SDS011;49700;48.072;7.800;2022-11-12T15:17:18;29.05;;;16.48;;
63555;SDS011;49700;48.072;7.800;2022-11-12T15:20:14;40.17;;;21.52;;
63555;SDS011;49700;48.072;7.800;2022-11-12T15:23:15;37.78;;;18.10;;
63555;SDS011;49700;48.072;7.800;2022-11-12T15:26:03;33.53;;;17.05;;
63555;SDS011;49700;48.072;7.800;2022-11-12T15:29:00;41.22;;;20.33;;
63555;SDS011;49700;48.072;7.800;2022-11-12T17:09:58;29.23;;;15.80;;
63555;SDS011;49700;48.072;7.800;2022-11-12T17:34:28;31.90;;;17.65;;
63555;SDS011;49700;48.072;7.800;2022-11-12T17:38:00;27.02;;;15.25;;
63555;SDS011;49700;48.072;7.800;2022-11-12T17:44:10;29.48;;;15.82;;
63555;SDS011;49700;48.072;7.800;2022-11-12T17:46:58;21.88;;;12.35;;
63555;SDS011;49700;48.072;7.800;2022-11-12T17:49:53;30.35;;;16.83;;
63555;SDS011;49700;48.072;7.800;2022-11-12T17:52:39;20.58;;;12.65;;
63555;SDS011;49700;48.072;7.800;2022-11-12T17:55:42;29.40;;;17.77;;
63555;SDS011;49700;48.072;7.800;2022-11-12T17:58:37;30.90;;;15.80;;
63555;SDS011;49700;48.072;7.800;2022-11-12T18:01:23;21.23;;;12.90;;
63555;SDS011;49700;48.072;7.800;2022-11-12T18:04:13;26.52;;;14.50;;
63555;SDS011;49700;48.072;7.800;2022-11-12T18:07:08;26.25;;;14.38;;
63555;SDS011;49700;48.072;7.800;2022-11-12T18:09:52;34.33;;;12.70;;
63555;SDS011;49700;48.072;7.800;2022-11-12T18:12:46;25.13;;;12.13;;
63555;SDS011;49700;48.072;7.800;2022-11-12T18:15:33;21.33;;;13.68;;
63555;SDS011;49700;48.072;7.800;2022-11-12T18:18:18;29.35;;;12.93;;
63555;SDS011;49700;48.072;7.800;2022-11-12T18:21:10;35.13;;;14.75;;
63555;SDS011;49700;48.072;7.800;2022-11-12T18:23:54;20.98;;;13.70;;
63555;SDS011;49700;48.072;7.800;2022-11-12T18:26:46;32.63;;;13.25;;
63555;SDS011;49700;48.072;7.800;2022-11-12T18:29:31;27.40;;;14.10;;
63555;SDS011;49700;48.072;7.800;2022-11-12T18:32:14;33.28;;;15.70;;
63555;SDS011;49700;48.072;7.800;2022-11-12T18:34:59;25.85;;;15.77;;
63555;SDS011;49700;48.072;7.800;2022-11-12T18:37:43;27.60;;;12.85;;
63555;SDS011;49700;48.072;7.800;2022-11-12T18:40:31;32.55;;;15.73;;
63555;SDS011;49700;48.072;7.800;2022-11-12T18:43:20;40.53;;;16.48;;
63555;SDS011;49700;48.072;7.800;2022-11-12T18:46:05;29.17;;;14.07;;
63555;SDS011;49700;48.072;7.800;2022-11-12T18:48:51;30.58;;;15.38;;
63555;SDS011;49700;48.072;7.800;2022-11-12T18:51:40;41.25;;;16.83;;
63555;SDS011;49700;48.072;7.800;2022-11-12T18:54:26;32.00;;;14.75;;
63555;SDS011;49700;48.072;7.800;2022-11-12T18:57:14;25.67;;;15.27;;
63555;SDS011;49700;48.072;7.800;2022-11-12T19:00:06;27.80;;;14.30;;
63555;SDS011;49700;48.072;7.800;2022-11-12T19:03:07;22.40;;;12.75;;
63555;SDS011;49700;48.072;7.800;2022-11-12T19:06:00;25.52;;;14.57;;
63555;SDS011;49700;48.072;7.800;2022-11-12T19:50:25;31.25;;;12.00;;
63555;SDS011;49700;48.072;7.800;2022-11-12T19:53:49;20.08;;;10.38;;
63555;SDS011;49700;48.072;7.800;2022-11-12T19:56:47;14.38;;;9.07;;
63555;SDS011;49700;48.072;7.800;2022-11-12T20:03:13;14.50;;;10.32;;
63555;SDS011;49700;48.072;7.800;2022-11-12T20:06:06;17.27;;;9.13;;
63555;SDS011;49700;48.072;7.800;2022-11-12T20:09:08;13.75;;;8.98;;
63555;SDS011;49700;48.072;7.800;2022-11-12T20:12:06;17.05;;;9.50;;
63555;SDS011;49700;48.072;7.800;2022-11-12T20:15:32;16.73;;;9.77;;
63555;SDS011;49700;48.072;7.800;2022-11-12T20:21:37;13.88;;;9.27;;
63555;SDS011;49700;48.072;7.800;2022-11-12T20:24:57;15.18;;;8.15;;
63555;SDS011;49700;48.072;7.800;2022-11-12T20:30:50;22.83;;;11.43;;
63555;SDS011;49700;48.072;7.800;2022-11-12T20:33:47;14.65;;;9.35;;
63555;SDS011;49700;48.072;7.800;2022-11-12T20:36:54;16.23;;;7.72;;
63555;SDS011;49700;48.072;7.800;2022-11-12T20:40:10;14.38;;;8.35;;
63555;SDS011;49700;48.072;7.800;2022-11-12T20:46:52;16.55;;;6.55;;
63555;SDS011;49700;48.072;7.800;2022-11-12T20:49:46;14.05;;;8.23;;
63555;SDS011;49700;48.072;7.800;2022-11-12T20:52:58;14.48;;;8.10;;
63555;SDS011;49700;48.072;7.800;2022-11-12T20:55:53;18.30;;;10.77;;
63555;SDS011;49700;48.072;7.800;2022-11-12T20:59:04;12.57;;;8.77;;
63555;SDS011;49700;48.072;7.800;2022-11-12T21:01:48;12.63;;;8.13;;
63555;SDS011;49700;48.072;7.800;2022-11-12T21:04:48;13.43;;;7.18;;
63555;SDS011;49700;48.072;7.800;2022-11-12T21:07:56;14.88;;;8.10;;
63555;SDS011;49700;48.072;7.800;2022-11-12T21:14:39;10.45;;;6.80;;
63555;SDS011;49700;48.072;7.800;2022-11-12T21:17:51;15.32;;;8.43;;
63555;SDS011;49700;48.072;7.800;2022-11-12T21:20:38;16.55;;;8.80;;
63555;SDS011;49700;48.072;7.800;2022-11-12T21:27:08;24.27;;;10.13;;
63555;SDS011;49700;48.072;7.800;2022-11-12T21:30:29;27.95;;;8.98;;
63555;SDS011;49700;48.072;7.800;2022-11-12T21:37:02;13.77;;;8.10;;
63555;SDS011;49700;48.072;7.800;2022-11-12T21:39:54;10.70;;;7.55;;
63555;SDS011;49700;48.072;7.800;2022-11-12T21:54:35;13.30;;;6.65;;
63555;SDS011;49700;48.072;7.800;2022-11-12T21:57:59;12.73;;;7.03;;
63555;SDS011;49700;48.072;7.800;2022-11-12T22:01:10;10.75;;;7.78;;
63555;SDS011;49700;48.072;7.800;2022-11-12T22:04:08;13.38;;;8.00;;
63555;SDS011;49700;48.072;7.800;2022-11-12T22:07:05;20.42;;;7.68;;
63555;SDS011;49700;48.072;7.800;2022-11-12T22:09:52;16.65;;;9.93;;
63555;SDS011;49700;48.072;7.800;2022-11-12T22:12:57;13.27;;;7.70;;
63555;SDS011;49700;48.072;7.800;2022-11-12T22:15:42;17.88;;;8.18;;
63555;SDS011;49700;48.072;7.800;2022-11-12T22:18:29;20.45;;;7.72;;
63555;SDS011;49700;48.072;7.800;2022-11-12T22:21:20;15.85;;;8.52;;
63555;SDS011;49700;48.072;7.800;2022-11-12T22:24:18;19.05;;;9.07;;
63555;SDS011;49700;48.072;7.800;2022-11-12T22:27:05;25.10;;;9.50;;
63555;SDS011;49700;48.072;7.800;2022-11-12T22:29:51;13.93;;;9.10;;
63555;SDS011;49700;48.072;7.800;2022-11-12T22:32:45;18.52;;;8.40;;
63555;SDS011;49700;48.072;7.800;2022-11-12T22:35:32;19.67;;;12.10;;
63555;SDS011;49700;48.072;7.800;2022-11-12T22:38:20;25.65;;;9.15;;
63555;SDS011;49700;48.072;7.800;2022-11-12T22:41:08;13.43;;;7.15;;
63555;SDS011;49700;48.072;7.800;2022-11-12T22:43:55;7.70;;;5.38;;
63555;SDS011;49700;48.072;7.800;2022-11-12T22:46:51;11.75;;;6.78;;
63555;SDS011;49700;48.072;7.800;2022-11-12T22:49:38;17.67;;;8.60;;
63555;SDS011;49700;48.072;7.800;2022-11-12T22:52:45;9.13;;;6.28;;
63555;SDS011;49700;48.072;7.800;2022-11-12T22:55:29;10.05;;;6.40;;
63555;SDS011;49700;48.072;7.800;2022-11-12T22:58:52;9.30;;;6.28;;
63555;SDS011;49700;48.072;7.800;2022-11-12T23:01:58;9.88;;;6.63;;
63555;SDS011;49700;48.072;7.800;2022-11-12T23:05:23;13.68;;;7.40;;
63555;SDS011;49700;48.072;7.800;2022-11-12T23:08:27;8.63;;;6.70;;
63555;SDS011;49700;48.072;7.800;2022-11-12T23:11:46;7.85;;;5.47;;
63555;SDS011;49700;48.072;7.800;2022-11-12T23:15:02;9.27;;;6.97;;
63555;SDS011;49700;48.072;7.800;2022-11-12T23:17:59;12.32;;;5.93;;
63555;SDS011;49700;48.072;7.800;2022-11-12T23:20:59;7.35;;;4.97;;
63555;SDS011;49700;48.072;7.800;2022-11-12T23:24:10;13.93;;;6.18;;
63555;SDS011;49700;48.072;7.800;2022-11-12T23:27:28;10.27;;;5.70;;
63555;SDS011;49700;48.072;7.800;2022-11-12T23:34:22;11.52;;;7.00;;
63555;SDS011;49700;48.072;7.800;2022-11-12T23:37:11;6.97;;;5.30;;
63555;SDS011;49700;48.072;7.800;2022-11-12T23:40:35;7.82;;;5.53;;
63555;SDS011;49700;48.072;7.800;2022-11-12T23:44:02;8.30;;;5.47;;
63555;SDS011;49700;48.072;7.800;2022-11-12T23:50:37;16.40;;;6.53;;
63555;SDS011;49700;48.072;7.800;2022-11-12T23:53:41;8.43;;;5.15;;
63555;SDS011;49700;48.072;7.800;2022-11-12T23:56:28;7.88;;;5.80;;
63555;SDS011;49700;48.072;7.800;2022-11-12T23:59:30;13.48;;;6.47;;
